Flight Track Log - Related Links

Times and Time Zones

All times are in EDT time to prevent confusion due to time zone crossing. See the UAL1062 flight status page for this flight to view local times or setup timezone preferences in your user account.

Time Position Orientation Groundspeed Altitude Reporting Facility
EDT Latitude Longitude Course Direction KTS MPH feet Rate Location/Type
Wed 04:56:09 PM 29.9540 -95.3415 162° South 176 203 900  Level FlightAware ADS-B
Wed 04:56:18 PM 29.9466 -95.3416 181° South 180 207 1,100 1,500 Climbing FlightAware ADS-B
Wed 04:56:21 PM 29.9441 -95.3424 195° South 182 209 1,200 857 Climbing FlightAware ADS-B
Wed 04:56:25 PM 29.9413 -95.3438 203° Southwest 187 215 1,200 857 Level FlightAware ADS-B
Wed 04:56:28 PM 29.9386 -95.3458 213° Southwest 191 220 1,300 2,000 Climbing FlightAware ADS-B
Wed 04:56:31 PM 29.9365 -95.3480 222° Southwest 196 226 1,400 2,000 Climbing FlightAware ADS-B
Wed 04:56:34 PM 29.9345 -95.3505 227° Southwest 199 229 1,500 1,714 Climbing FlightAware ADS-B
Wed 04:56:38 PM 29.9325 -95.3541 237° Southwest 206 237 1,600 1,091 Climbing FlightAware ADS-B
Wed 04:56:45 PM 29.9304 -95.3617 252° West 217 250 1,700 1,200 Climbing FlightAware ADS-B
Wed 04:56:48 PM 29.9301 -95.3654 265° West 220 253 1,800 1,500 Climbing FlightAware ADS-B
Wed 04:56:53 PM 29.9306 -95.3713 276° West 227 261 1,900 1,333 Climbing FlightAware ADS-B
Wed 04:56:57 PM 29.9319 -95.3759 288° West 233 268 2,000 1,500 Climbing FlightAware ADS-B
Wed 04:57:01 PM 29.9342 -95.3808 298° West 239 275 2,100 1,500 Climbing FlightAware ADS-B
Wed 04:57:05 PM 29.9370 -95.3849 308° West 246 283 2,200 1,500 Climbing FlightAware ADS-B
Wed 04:57:09 PM 29.9399 -95.3879 318° Northwest 247 284 2,300 2,000 Climbing FlightAware ADS-B
Wed 04:57:14 PM 29.9450 -95.3915 329° Northwest 247 284 2,500 2,000 Climbing FlightAware ADS-B
Wed 04:57:18 PM 29.9491 -95.3935 337° Northwest 248 285 2,600 2,250 Climbing FlightAware ADS-B
Wed 04:57:22 PM 29.9538 -95.3945 350° North 245 282 2,800 2,727 Climbing FlightAware ADS-B
Wed 04:57:29 PM 29.9624 -95.3941 North 243 280 3,100 2,500 Climbing FlightAware ADS-B
Wed 04:57:34 PM 29.9670 -95.3926 16° North 243 280 3,300 2,250 Climbing FlightAware ADS-B
Wed 04:57:37 PM 29.9711 -95.3907 22° Northeast 245 282 3,400 2,118 Climbing FlightAware ADS-B
Wed 04:57:51 PM 29.9857 -95.3835 23° Northeast 257 296 3,900 1,784 Climbing FlightAware ADS-B
Wed 04:58:14 PM 30.0116 -95.3703 24° Northeast 276 318 4,500 1,935 Climbing FlightAware ADS-B
Wed 04:58:22 PM 30.0210 -95.3635 35° Northeast 274 315 4,900 2,667 Climbing FlightAware ADS-B
Wed 04:58:41 PM 30.0390 -95.3447 43° Northeast 279 321 5,700 2,647 Climbing FlightAware ADS-B
Wed 04:58:56 PM 30.0537 -95.3288 43° Northeast 282 325 6,400 2,914 Climbing FlightAware ADS-B
Wed 04:59:16 PM 30.0720 -95.3090 43° Northeast 279 321 7,400 2,919 Climbing FlightAware ADS-B
Wed 04:59:33 PM 30.0880 -95.2915 43° Northeast 278 320 8,200 2,375 Climbing FlightAware ADS-B
Wed 05:00:04 PM 30.1172 -95.2590 44° Northeast 291 335 9,300 2,108 Climbing FlightAware ADS-B
Wed 05:00:10 PM 30.1236 -95.2523 42° Northeast 295 339 9,500 1,696 Climbing FlightAware ADS-B
Wed 05:00:50 PM 30.1694 -95.2141 35° Northeast 319 367 10,600 1,406 Climbing FlightAware ADS-B
Wed 05:01:14 PM 30.1996 -95.1890 36° Northeast 343 395 11,000 1,418 Climbing FlightAware ADS-B
Wed 05:01:45 PM 30.2408 -95.1548 36° Northeast 359 413 11,900 1,839 Climbing FlightAware ADS-B
Wed 05:02:16 PM 30.2841 -95.1185 36° Northeast 374 430 12,900 2,043 Climbing FlightAware ADS-B
Wed 05:03:19 PM 30.3723 -95.0443 36° Northeast 383 441 15,100 1,919 Climbing FlightAware ADS-B
Wed 05:06:23 PM 30.6501 -94.8175 33° Northeast 413 475 20,800 1,861 Climbing FlightAware ADS-B
Wed 05:06:55 PM 30.7020 -94.7777 33° Northeast 413 475 21,800 2,438 Climbing FlightAware ADS-B
Wed 05:07:27 PM 30.7516 -94.7394 34° Northeast 399 459 23,400 2,762 Climbing FlightAware ADS-B
Wed 05:07:58 PM 30.7976 -94.7040 33° Northeast 387 445 24,700 1,594 Climbing FlightAware ADS-B
Wed 05:08:31 PM 30.8484 -94.6647 34° Northeast 403 464 25,100 778 Climbing FlightAware ADS-B
Wed 05:09:46 PM 30.9697 -94.5712 34° Northeast 430 495 26,100 977 Climbing FlightAware ADS-B
Wed 05:11:23 PM 31.1325 -94.4447 34° Northeast 438 504 27,900 1,049 Climbing FlightAware ADS-B
Wed 05:12:09 PM 31.2042 -94.3897 34° Northeast 430 495 28,600 878 Climbing Fort Worth Center
Wed 05:12:45 PM 31.2522 -94.3511 34° Northeast 452 520 29,100 1,286 Climbing Houston Center
Wed 05:13:47 PM 31.3775 -94.2547 33° Northeast 451 519 30,700 1,355 Climbing Houston Center
Wed 05:14:49 PM 31.4797 -94.1739 34° Northeast 446 513 31,900 1,065 Climbing Houston Center
Wed 05:15:51 PM 31.5822 -94.0933 34° Northeast 445 512 32,900 968 Climbing Houston Center
Wed 05:16:53 PM 31.6853 -94.0128 34° Northeast 445 512 33,900 1,016 Climbing Houston Center
Wed 05:17:55 PM 31.8008 -93.9211 34° Northeast 441 507 35,000 532 Climbing Houston Center
Wed 05:18:57 PM 31.9022 -93.8411 34° Northeast 439 505 35,000  Level Houston Center
Wed 05:19:59 PM 32.0033 -93.7614 34° Northeast 437 503 35,000  Level Houston Center
Wed 05:21:02 PM 32.1083 -93.6764 34° Northeast 434 499 35,000  Level Houston Center
Wed 05:22:04 PM 32.2031 -93.6006 34° Northeast 434 499 35,000  Level Houston Center
Wed 05:23:09 PM 32.3217 -93.4972 36° Northeast 434 499 35,000  Level Fort Worth Center
Wed 05:29:16 PM 32.9182 -92.9882 36° Northeast 433 498 35,000  Level FlightAware ADS-B
Wed 05:29:50 PM 32.9558 -92.9205 56° Northeast 434 499 35,000  Level FlightAware ADS-B
Wed 05:31:09 PM 33.0439 -92.7669 56° Northeast 426 490 35,000  Level Fort Worth Center
Wed 05:32:09 PM 33.1083 -92.6472 57° Northeast 432 497 35,000  Level Fort Worth Center
Wed 05:33:09 PM 33.1747 -92.5294 56° Northeast 432 497 35,000  Level Fort Worth Center
Wed 05:35:19 PM 33.3169 -92.2689 57° Northeast 430 495 35,000  Level Memphis Center
Wed 05:36:20 PM 33.3856 -92.1486 56° Northeast 430 495 35,000  Level Memphis Center
Wed 05:37:19 PM 33.4519 -92.0303 56° Northeast 435 501 35,000  Level Memphis Center
Wed 05:38:19 PM 33.5161 -91.9069 58° Northeast 435 501 35,000  Level Memphis Center
Wed 05:39:19 PM 33.5803 -91.7836 58° Northeast 435 501 35,000  Level Memphis Center
Wed 05:40:19 PM 33.6336 -91.6769 59° Northeast 429 494 35,000  Level Memphis Center
Wed 05:41:19 PM 33.7036 -91.5508 56° Northeast 429 494 35,000  Level Memphis Center
Wed 05:42:19 PM 33.7675 -91.4317 57° Northeast 429 494 35,000  Level Memphis Center
Wed 05:43:19 PM 33.8417 -91.2950 57° Northeast 429 494 35,000  Level Memphis Center
Wed 05:44:19 PM 33.9072 -91.1706 58° Northeast 434 499 35,000  Level Memphis Center
Wed 05:45:19 PM 33.9642 -91.0583 59° Northeast 434 499 35,000  Level Memphis Center
Wed 05:46:19 PM 34.0317 -90.9311 57° Northeast 439 505 35,000  Level Memphis Center
Wed 05:47:19 PM 34.0989 -90.8061 57° Northeast 439 505 35,000  Level Memphis Center
Wed 05:48:19 PM 34.1639 -90.6758 59° Northeast 450 518 35,000  Level Memphis Center
Wed 05:49:19 PM 34.2311 -90.5506 57° Northeast 450 518 35,000  Level Memphis Center
Wed 05:50:19 PM 34.2958 -90.4250 58° Northeast 450 518 35,000  Level Memphis Center
Wed 05:51:19 PM 34.3647 -90.2942 57° Northeast 450 518 35,000  Level Memphis Center
Wed 05:52:19 PM 34.4356 -90.1531 59° Northeast 450 518 35,000  Level Memphis Center
Wed 05:53:19 PM 34.5042 -90.0219 58° Northeast 450 518 35,000  Level Memphis Center
Wed 05:54:19 PM 34.5661 -89.8931 60° Northeast 450 518 35,000  Level Memphis Center
Wed 05:55:19 PM 34.6325 -89.7589 59° Northeast 450 518 35,000  Level Memphis Center
Wed 05:56:19 PM 34.6983 -89.6272 59° Northeast 450 518 35,000  Level Memphis Center
Wed 05:57:19 PM 34.7686 -89.4950 57° Northeast 456 525 35,000  Level Memphis Center
Wed 05:58:19 PM 34.8364 -89.3653 57° Northeast 456 525 35,000  Level Memphis Center
Wed 05:59:19 PM 34.9042 -89.2303 58° Northeast 456 525 35,000  Level Memphis Center
Wed 06:00:19 PM 34.9697 -89.1003 58° Northeast 456 525 35,000  Level Memphis Center
Wed 06:01:19 PM 35.0350 -88.9672 59° Northeast 456 525 35,000  Level Memphis Center
Wed 06:02:19 PM 35.1003 -88.8367 59° Northeast 451 519 35,000  Level Memphis Center
Wed 06:03:19 PM 35.1672 -88.7061 58° Northeast 451 519 35,000  Level Memphis Center
Wed 06:09:00 PM 35.5330 -87.9590 58° Northeast 456 525 35,000  Level FlightAware ADS-B
Wed 06:09:32 PM 35.5670 -87.8870 60° Northeast 457 526 35,000  Level FlightAware ADS-B
Wed 06:10:21 PM 35.6130 -87.7940 59° Northeast 457 526 35,000  Level FlightAware ADS-B
Wed 06:11:44 PM 35.7140 -87.5820 60° Northeast 458 527 35,000  Level FlightAware ADS-B
Wed 06:12:28 PM 35.7600 -87.4840 60° Northeast 457 526 35,000  Level FlightAware ADS-B
Wed 06:13:04 PM 35.7980 -87.4040 60° Northeast 458 527 35,000  Level FlightAware ADS-B
Wed 06:13:53 PM 35.8510 -87.2940 59° Northeast 460 529 35,000  Level FlightAware ADS-B
Wed 06:14:33 PM 35.8940 -87.2040 59° Northeast 462 532 35,000  Level FlightAware ADS-B
Wed 06:15:12 PM 35.9361 -87.1136 60° Northeast 464 534 35,000  Level FlightAware ADS-B
Wed 06:15:42 PM 35.9690 -87.0440 60° Northeast 466 536 35,000  Level FlightAware ADS-B
Wed 06:16:15 PM 36.0038 -86.9697 60° Northeast 466 536 35,000  Level FlightAware ADS-B
Wed 06:17:05 PM 36.0580 -86.8541 60° Northeast 469 540 35,000  Level FlightAware ADS-B
Wed 06:17:37 PM 36.0935 -86.7781 60° Northeast 469 540 35,000  Level FlightAware ADS-B
Wed 06:18:23 PM 36.1410 -86.6720 61° Northeast 469 540 35,000  Level FlightAware ADS-B
Wed 06:18:35 PM 36.1512 -86.6409 68° East 469 540 35,000  Level FlightAware ADS-B
Wed 06:19:08 PM 36.1775 -86.5600 68° East 469 540 35,000  Level FlightAware ADS-B
Wed 06:19:38 PM 36.2019 -86.4846 68° East 469 540 35,000  Level FlightAware ADS-B
Wed 06:20:10 PM 36.2273 -86.4058 68° East 469 540 35,000  Level FlightAware ADS-B
Wed 06:20:40 PM 36.2514 -86.3309 68° East 469 540 35,000  Level FlightAware ADS-B
Wed 06:21:10 PM 36.2754 -86.2561 68° East 469 540 35,000  Level FlightAware ADS-B
Wed 06:21:40 PM 36.2995 -86.1810 68° East 467 537 35,000  Level FlightAware ADS-B
Wed 06:22:11 PM 36.3244 -86.1033 68° East 467 537 35,000  Level FlightAware ADS-B
Wed 06:23:13 PM 36.3730 -85.9520 68° East 465 535 35,000  Level FlightAware ADS-B
Wed 06:24:05 PM 36.4137 -85.8224 69° East 463 533 35,000  Level FlightAware ADS-B
Wed 06:24:36 PM 36.4379 -85.7455 69° East 462 532 35,000  Level FlightAware ADS-B
Wed 06:25:06 PM 36.4611 -85.6717 69° East 460 529 35,000  Level FlightAware ADS-B
Wed 06:25:43 PM 36.4897 -85.5806 69° East 459 528 35,000  Level FlightAware ADS-B
Wed 06:26:15 PM 36.5143 -85.5023 69° East 458 527 35,000  Level FlightAware ADS-B
Wed 06:26:48 PM 36.5394 -85.4218 69° East 457 526 35,000  Level FlightAware ADS-B
Wed 06:27:19 PM 36.5630 -85.3457 69° East 455 524 35,000  Level FlightAware ADS-B
Wed 06:27:54 PM 36.5892 -85.2617 69° East 455 524 35,000  Level FlightAware ADS-B
Wed 06:28:27 PM 36.6144 -85.1808 69° East 455 524 35,000  Level FlightAware ADS-B
Wed 06:28:57 PM 36.6371 -85.1072 69° East 455 524 35,000  Level FlightAware ADS-B
Wed 06:29:31 PM 36.6629 -85.0232 69° East 455 524 35,000  Level FlightAware ADS-B
Wed 06:30:01 PM 36.6854 -84.9499 69° East 456 525 35,000  Level FlightAware ADS-B
Wed 06:30:41 PM 36.7153 -84.8523 69° East 455 524 35,000  Level FlightAware ADS-B
Wed 06:31:12 PM 36.7377 -84.7785 69° East 454 522 35,000  Level FlightAware ADS-B
Wed 06:31:43 PM 36.7611 -84.7018 69° East 454 522 35,000  Level FlightAware ADS-B
Wed 06:32:13 PM 36.7836 -84.6277 69° East 453 521 35,000  Level FlightAware ADS-B
Wed 06:32:44 PM 36.8065 -84.5519 69° East 452 520 35,000  Level FlightAware ADS-B
Wed 06:33:15 PM 36.8287 -84.4786 69° East 453 521 35,000  Level FlightAware ADS-B
Wed 06:33:46 PM 36.8519 -84.4015 69° East 452 520 35,000  Level FlightAware ADS-B
Wed 06:34:18 PM 36.8751 -84.3242 69° East 452 520 35,000  Level FlightAware ADS-B
Wed 06:34:50 PM 36.8985 -84.2460 69° East 452 520 35,000  Level FlightAware ADS-B
Wed 06:35:21 PM 36.9210 -84.1707 69° East 451 519 35,000  Level FlightAware ADS-B
Wed 06:35:53 PM 36.9443 -84.0928 69° East 451 519 35,000  Level FlightAware ADS-B
Wed 06:36:25 PM 36.9676 -84.0144 70° East 454 522 35,000  Level FlightAware ADS-B
Wed 06:36:55 PM 36.9898 -83.9392 70° East 456 525 35,000  Level FlightAware ADS-B
Wed 06:37:25 PM 37.0118 -83.8647 70° East 456 525 35,000  Level FlightAware ADS-B
Wed 06:37:59 PM 37.0364 -83.7811 70° East 455 524 35,000  Level FlightAware ADS-B
Wed 06:38:43 PM 37.0678 -83.6740 70° East 457 526 35,000  Level FlightAware ADS-B
Wed 06:39:13 PM 37.0897 -83.5994 70° East 458 527 35,000  Level FlightAware ADS-B
Wed 06:39:59 PM 37.1228 -83.4852 70° East 460 529 35,000  Level FlightAware ADS-B
Wed 06:40:30 PM 37.1461 -83.4053 70° East 462 532 35,000  Level FlightAware ADS-B
Wed 06:41:00 PM 37.1680 -83.3300 70° East 462 532 35,000  Level FlightAware ADS-B
Wed 06:41:30 PM 37.1898 -83.2545 70° East 463 533 35,000  Level FlightAware ADS-B
Wed 06:42:10 PM 37.2182 -83.1554 70° East 464 534 35,000  Level FlightAware ADS-B
Wed 06:42:40 PM 37.2404 -83.0783 70° East 464 534 35,000  Level FlightAware ADS-B
Wed 06:43:11 PM 37.2626 -83.0005 70° East 464 534 35,000  Level FlightAware ADS-B
Wed 06:43:47 PM 37.2884 -82.9100 70° East 463 533 35,000  Level FlightAware ADS-B
Wed 06:44:23 PM 37.3146 -82.8177 70° East 463 533 35,000  Level FlightAware ADS-B
Wed 06:45:07 PM 37.3456 -82.7084 70° East 462 532 35,000  Level FlightAware ADS-B
Wed 06:45:37 PM 37.3650 -82.6400 70° East 461 531 35,000  Level FlightAware ADS-B
Wed 06:45:52 PM 37.3781 -82.5932 71° East 460 529 35,000  Level FlightAware ADS-B
Wed 06:47:05 PM 37.4250 -82.4260 71° East 459 528 35,000  Level FlightAware ADS-B
Wed 06:47:31 PM 37.4478 -82.3441 71° East 459 528 35,000  Level FlightAware ADS-B
Wed 06:48:03 PM 37.4701 -82.2642 71° East 459 528 35,000  Level FlightAware ADS-B
Wed 06:48:44 PM 37.4980 -82.1650 70° East 460 529 35,000  Level FlightAware ADS-B
Wed 06:48:51 PM 37.5032 -82.1446 72° East 459 528 35,000  Level FlightAware ADS-B
Wed 06:49:30 PM 37.5305 -82.0456 71° East 460 529 35,000  Level FlightAware ADS-B
Wed 06:50:04 PM 37.5542 -81.9592 71° East 460 529 35,000  Level FlightAware ADS-B
Wed 06:50:39 PM 37.5786 -81.8708 71° East 462 532 35,000  Level FlightAware ADS-B
Wed 06:51:15 PM 37.6037 -81.7788 71° East 463 533 35,000  Level FlightAware ADS-B
Wed 06:51:46 PM 37.6256 -81.6985 71° East 463 533 35,000  Level FlightAware ADS-B
Wed 06:52:55 PM 37.6730 -81.5250 71° East 460 529 35,000  Level FlightAware ADS-B
Wed 06:53:20 PM 37.6901 -81.4598 72° East 461 531 35,000  Level FlightAware ADS-B
Wed 06:54:24 PM 37.7333 -81.2985 71° East 462 532 35,000 -420 Level FlightAware ADS-B
Wed 06:55:00 PM 37.7580 -81.2070 71° East 459 528 34,300 -1,385 Descending FlightAware ADS-B
Wed 06:55:16 PM 37.7691 -81.1653 71° East 458 527 33,800 -1,967 Descending FlightAware ADS-B
Wed 06:56:01 PM 37.8047 -81.0554 68° East 462 532 32,300 -1,514 Descending FlightAware ADS-B
Wed 06:57:07 PM 37.8620 -80.8930 66° East 461 531 31,000 -722 Descending FlightAware ADS-B
Wed 06:57:49 PM 37.8990 -80.7880 66° East 459 528 31,000  Level FlightAware ADS-B
Wed 06:58:30 PM 37.9360 -80.6910 64° Northeast 456 525 31,000  Level FlightAware ADS-B
Wed 06:59:13 PM 37.9840 -80.5940 58° Northeast 457 526 31,000  Level FlightAware ADS-B
Wed 06:59:53 PM 38.0280 -80.5010 59° Northeast 458 527 31,000  Level FlightAware ADS-B
Wed 07:00:38 PM 38.0760 -80.3970 60° Northeast 461 531 31,000  Level FlightAware ADS-B
Wed 07:01:20 PM 38.1200 -80.3000 60° Northeast 460 529 31,000  Level FlightAware ADS-B
Wed 07:02:00 PM 38.1640 -80.2050 59° Northeast 461 531 31,000  Level FlightAware ADS-B
Wed 07:02:44 PM 38.2110 -80.1030 60° Northeast 462 532 31,000  Level FlightAware ADS-B
Wed 07:03:24 PM 38.2540 -80.0110 59° Northeast 460 529 31,000  Level FlightAware ADS-B
Wed 07:04:08 PM 38.3020 -79.9060 60° Northeast 461 531 31,000 -578 Level FlightAware ADS-B
Wed 07:04:47 PM 38.3420 -79.8180 60° Northeast 456 525 30,200 -1,725 Descending FlightAware ADS-B
Wed 07:05:28 PM 38.3860 -79.7210 60° Northeast 448 516 28,700 -2,175 Descending FlightAware ADS-B
Wed 07:06:07 PM 38.4260 -79.6330 60° Northeast 441 507 27,300 -2,093 Descending FlightAware ADS-B
Wed 07:07:37 PM 38.5150 -79.4350 60° Northeast 424 488 24,200 -1,490 Descending FlightAware ADS-B
Wed 07:08:40 PM 38.5480 -79.2840 74° East 423 487 23,500 -1,243 Descending FlightAware ADS-B
Wed 07:09:28 PM 38.5670 -79.1700 78° East 417 480 21,900 -1,962 Descending FlightAware ADS-B
Wed 07:10:24 PM 38.5890 -79.0350 78° East 404 465 20,100 -1,891 Descending FlightAware ADS-B
Wed 07:11:00 PM 38.6030 -78.9530 78° East 395 455 19,000 -1,786 Descending FlightAware ADS-B
Wed 07:11:48 PM 38.6220 -78.8440 77° East 383 441 17,600 -1,891 Descending FlightAware ADS-B
Wed 07:12:32 PM 38.6420 -78.7500 75° East 372 428 16,100 -2,165 Descending FlightAware ADS-B
Wed 07:13:25 PM 38.6680 -78.6400 73° East 363 418 14,100 -2,194 Descending FlightAware ADS-B
Wed 07:14:05 PM 38.6870 -78.5630 72° East 359 413 12,700 -1,835 Descending FlightAware ADS-B
Wed 07:14:50 PM 38.7090 -78.4720 73° East 350 403 11,500 -1,694 Descending FlightAware ADS-B
Wed 07:15:30 PM 38.7330 -78.3910 69° East 341 392 10,300 -988 Descending FlightAware ADS-B
Wed 07:16:15 PM 38.7810 -78.3290 45° Northeast 328 377 10,100 -141 Descending FlightAware ADS-B
Wed 07:16:55 PM 38.8250 -78.2760 43° Northeast 328 377 10,100  Level FlightAware ADS-B
Wed 07:17:36 PM 38.8680 -78.2220 44° Northeast 331 381 10,100  Level FlightAware ADS-B
Wed 07:18:20 PM 38.9180 -78.1620 43° Northeast 330 380 10,100 -71 Level FlightAware ADS-B
Wed 07:19:00 PM 38.9600 -78.1110 43° Northeast 306 352 10,000 -600 Descending FlightAware ADS-B
Wed 07:19:30 PM 38.9920 -78.0710 44° Northeast 298 343 9,400 -1,200 Descending FlightAware ADS-B
Wed 07:19:55 PM 39.0160 -78.0420 43° Northeast 298 343 8,900 -1,200 Descending FlightAware ADS-B
Wed 07:20:25 PM 39.0460 -78.0050 44° Northeast 283 326 8,300 -1,300 Descending FlightAware ADS-B
Wed 07:20:55 PM 39.0730 -77.9720 43° Northeast 280 322 7,600 -1,418 Descending FlightAware ADS-B
Wed 07:21:20 PM 39.0930 -77.9470 44° Northeast 280 322 7,000 -1,500 Descending FlightAware ADS-B
Wed 07:21:35 PM 39.1110 -77.9260 42° Northeast 280 322 6,600 -1,500 Descending FlightAware ADS-B
Wed 07:22:00 PM 39.1350 -77.8980 42° Northeast 280 322 6,000 -1,418 Descending FlightAware ADS-B
Wed 07:22:30 PM 39.1610 -77.8670 43° Northeast 278 320 5,300 -1,200 Descending FlightAware ADS-B
Wed 07:22:45 PM 39.1730 -77.8410 59° Northeast 283 326 5,100 -400 Descending FlightAware ADS-B
Wed 07:23:00 PM 39.1760 -77.8160 81° East 282 325 5,100  Level FlightAware ADS-B
Wed 07:23:25 PM 39.1820 -77.7750 79° East 280 322 5,100 -655 Level FlightAware ADS-B
Wed 07:23:55 PM 39.1880 -77.7280 81° East 283 326 4,500 -1,091 Descending FlightAware ADS-B
Wed 07:24:20 PM 39.1940 -77.6870 79° East 280 322 4,100 -436 Descending FlightAware ADS-B
Wed 07:24:50 PM 39.2020 -77.6380 78° East 277 319 4,100  Level FlightAware ADS-B
Wed 07:25:20 PM 39.2090 -77.5910 79° East 279 321 4,100 -621 Level FlightAware ADS-B
Wed 07:25:48 PM 39.2060 -77.5540 96° East 280 322 3,500 -1,171 Descending FlightAware ADS-B
Wed 07:26:01 PM 39.1940 -77.5360 131° Southeast 275 316 3,300 -480 Descending FlightAware ADS-B
Wed 07:26:13 PM 39.1810 -77.5250 147° Southeast 262 302 3,300 -429 Level FlightAware ADS-B
Wed 07:26:43 PM 39.1530 -77.5020 148° Southeast 242 278 3,000 -638 Descending FlightAware ADS-B
Wed 07:27:00 PM 39.1380 -77.4900 148° Southeast 240 276 2,800 -558 Descending FlightAware ADS-B
Wed 07:27:26 PM 39.1090 -77.4720 154° Southeast 217 250 2,600 -340 Descending FlightAware ADS-B
Wed 07:27:53 PM 39.0890 -77.4620 159° South 203 234 2,500 -471 Descending FlightAware ADS-B
Wed 07:28:17 PM 39.0630 -77.4570 172° South 194 223 2,200 -938 Descending FlightAware ADS-B
Wed 07:28:57 PM 39.0300 -77.4590 183° South 168 193 1,500 -706 Descending FlightAware ADS-B
Wed 07:29:42 PM 38.9990 -77.4590 180° South 162 186 1,200 -400 Descending FlightAware ADS-B

Login

Don't have an account? Register now (free) for customized features, flight alerts, and more!